createdAt,value
2023-01-13T00:01:58.837Z,10.10
2023-01-13T00:04:47.574Z,10.10
2023-01-13T00:07:35.173Z,10.20
2023-01-13T00:10:22.755Z,10.20
2023-01-13T00:13:09.965Z,10.30
2023-01-13T00:15:59.160Z,10.30
2023-01-13T00:18:47.760Z,10.30
2023-01-13T00:21:36.586Z,10.20
2023-01-13T00:24:24.112Z,10.20
2023-01-13T00:27:11.507Z,10.20
2023-01-13T00:29:59.161Z,10.20
2023-01-13T00:32:46.213Z,10.40
2023-01-13T00:35:33.832Z,10.30
2023-01-13T00:38:21.464Z,10.20
2023-01-13T00:41:14.811Z,10.20
2023-01-13T00:44:02.470Z,10.40
2023-01-13T00:46:50.141Z,10.20
2023-01-13T00:49:37.777Z,10.20
2023-01-13T00:52:25.016Z,10.30
2023-01-13T00:55:12.554Z,10.30
2023-01-13T00:58:06.434Z,10.30
2023-01-13T01:00:53.851Z,10.30
2023-01-13T01:03:41.834Z,10.30
2023-01-13T01:06:29.684Z,10.30
2023-01-13T01:09:17.544Z,10.20
2023-01-13T01:12:05.321Z,10.20
2023-01-13T01:14:52.704Z,10.30
2023-01-13T01:17:40.127Z,10.40
2023-01-13T01:20:27.175Z,10.40
2023-01-13T01:23:14.414Z,10.50
2023-01-13T01:26:03.522Z,10.50
2023-01-13T01:28:51.468Z,10.40
2023-01-13T01:31:38.826Z,10.40
2023-01-13T01:34:26.459Z,10.40
2023-01-13T01:37:13.814Z,10.50
2023-01-13T01:40:01.044Z,10.40
2023-01-13T01:43:06.481Z,10.50
2023-01-13T01:45:54.889Z,10.40
2023-01-13T01:48:43.825Z,10.40
2023-01-13T01:51:33.947Z,10.40
2023-01-13T01:54:27.392Z,10.30
2023-01-13T01:57:17.820Z,10.40
2023-01-13T02:00:06.618Z,10.30
2023-01-13T02:02:54.507Z,10.30
2023-01-13T02:05:41.718Z,10.30
2023-01-13T02:08:29.308Z,10.20
2023-01-13T02:11:49.970Z,10.30
2023-01-13T02:14:38.682Z,10.30
2023-01-13T02:17:47.925Z,10.30
2023-01-13T02:20:54.564Z,10.30
2023-01-13T02:24:22.711Z,10.20
2023-01-13T02:27:22.357Z,10.30
2023-01-13T02:30:47.305Z,10.20
2023-01-13T02:34:08.102Z,10.20
2023-01-13T02:36:58.599Z,10.30
2023-01-13T02:40:07.296Z,10.20
2023-01-13T02:43:17.321Z,10.30
2023-01-13T02:46:15.128Z,10.20
2023-01-13T02:49:06.008Z,10.30
2023-01-13T02:51:55.833Z,10.40
2023-01-13T02:54:46.467Z,10.40
2023-01-13T02:57:36.034Z,10.40
2023-01-13T03:00:23.981Z,10.50
2023-01-13T03:03:11.226Z,10.50
2023-01-13T03:06:01.637Z,10.50
2023-01-13T03:08:57.232Z,10.50
2023-01-13T03:11:53.529Z,10.50
2023-01-13T03:14:46.313Z,10.50
2023-01-13T03:17:36.631Z,10.50
2023-01-13T03:20:26.889Z,10.50
2023-01-13T03:23:29.297Z,10.50
2023-01-13T03:26:19.992Z,10.50
2023-01-13T03:29:19.343Z,10.50
2023-01-13T03:32:12.926Z,10.50
2023-01-13T03:35:21.832Z,10.50
2023-01-13T03:38:18.394Z,10.50
2023-01-13T03:41:24.089Z,10.50
2023-01-13T03:44:23.186Z,10.50
2023-01-13T03:47:30.306Z,10.50
2023-01-13T03:50:32.636Z,10.50
2023-01-13T03:53:35.149Z,10.40
2023-01-13T03:56:28.675Z,10.50
2023-01-13T03:59:18.823Z,10.50
2023-01-13T04:02:24.390Z,10.50
2023-01-13T04:05:12.420Z,10.50
2023-01-13T04:08:14.529Z,10.50
2023-01-13T04:11:10.682Z,10.50
2023-01-13T04:13:58.976Z,10.40
2023-01-13T04:16:46.307Z,10.50
2023-01-13T04:19:33.909Z,10.50
2023-01-13T04:22:21.441Z,10.60
2023-01-13T04:25:09.700Z,10.50
2023-01-13T04:27:57.183Z,10.50
2023-01-13T04:30:45.354Z,10.50
2023-01-13T04:33:32.700Z,10.50
2023-01-13T04:36:21.964Z,10.50
2023-01-13T04:39:09.056Z,10.60
2023-01-13T04:41:59.405Z,10.60
2023-01-13T04:44:46.575Z,10.60
2023-01-13T04:47:33.747Z,10.70
2023-01-13T04:50:22.530Z,10.70
2023-01-13T04:53:09.963Z,10.70
2023-01-13T04:55:57.414Z,10.70
2023-01-13T04:58:44.843Z,10.70
2023-01-13T05:01:32.366Z,10.80
2023-01-13T05:04:19.655Z,10.80
2023-01-13T05:07:07.126Z,10.80
2023-01-13T05:09:54.465Z,10.80
2023-01-13T05:13:00.368Z,10.80
2023-01-13T05:16:06.860Z,10.80
2023-01-13T05:18:54.341Z,10.80
2023-01-13T05:21:59.937Z,10.30
2023-01-13T05:25:05.740Z,10.10
2023-01-13T05:28:00.442Z,10.00
2023-01-13T05:30:50.289Z,9.80
2023-01-13T05:33:37.727Z,9.80
2023-01-13T05:36:25.085Z,9.90
2023-01-13T05:39:12.463Z,9.90
2023-01-13T05:42:17.497Z,10.00
2023-01-13T05:45:04.950Z,10.00
2023-01-13T05:47:52.344Z,10.00
2023-01-13T05:50:40.106Z,9.90
2023-01-13T05:53:27.850Z,9.90
2023-01-13T05:56:16.530Z,9.80
2023-01-13T05:59:03.551Z,9.70
2023-01-13T06:01:50.827Z,9.60
2023-01-13T06:04:37.949Z,9.40
2023-01-13T06:07:24.890Z,9.30
2023-01-13T06:10:12.377Z,9.20
2023-01-13T06:12:59.699Z,9.20
2023-01-13T06:15:46.876Z,9.20
2023-01-13T06:18:33.771Z,9.20
2023-01-13T06:21:21.084Z,9.20
2023-01-13T06:24:09.363Z,9.20
2023-01-13T06:26:56.707Z,9.10
2023-01-13T06:29:44.214Z,9.10
2023-01-13T06:32:34.687Z,9.10
2023-01-13T06:35:25.257Z,9.10
2023-01-13T06:38:16.076Z,9.20
2023-01-13T06:41:04.229Z,9.20
2023-01-13T06:43:51.361Z,9.20
2023-01-13T06:46:38.693Z,9.30
2023-01-13T06:49:26.148Z,9.40
2023-01-13T06:52:13.461Z,9.50
2023-01-13T06:55:00.697Z,9.50
2023-01-13T06:57:56.358Z,9.40
2023-01-13T07:00:43.701Z,9.40
2023-01-13T07:03:31.457Z,9.40
2023-01-13T07:06:18.592Z,9.40
2023-01-13T07:09:06.826Z,9.40
2023-01-13T07:11:53.895Z,9.30
2023-01-13T07:14:59.488Z,9.30
2023-01-13T07:17:47.376Z,9.30
2023-01-13T07:20:34.489Z,9.30
2023-01-13T07:23:22.183Z,9.30
2023-01-13T07:26:18.670Z,9.20
2023-01-13T07:29:05.829Z,9.20
2023-01-13T07:31:53.224Z,9.20
2023-01-13T07:34:40.821Z,9.10
2023-01-13T07:37:27.986Z,9.10
2023-01-13T07:40:15.469Z,9.00
2023-01-13T07:43:21.226Z,9.00
2023-01-13T07:46:08.989Z,8.90
2023-01-13T07:48:56.175Z,8.90
2023-01-13T07:51:43.805Z,8.90
2023-01-13T07:54:40.317Z,8.90
2023-01-13T07:57:20.539Z,8.90
2023-01-13T08:00:09.119Z,9.00
2023-01-13T08:02:57.426Z,9.00
2023-01-13T08:05:46.681Z,9.00
2023-01-13T08:08:34.250Z,9.00
2023-01-13T08:11:23.558Z,9.10
2023-01-13T08:14:10.248Z,9.10
2023-01-13T08:16:57.724Z,9.00
2023-01-13T08:19:45.289Z,8.90
2023-01-13T08:22:33.279Z,8.90
2023-01-13T08:25:20.527Z,8.90
2023-01-13T08:28:07.984Z,8.90
2023-01-13T08:30:55.441Z,8.90
2023-01-13T08:33:43.081Z,8.90
2023-01-13T08:36:30.528Z,9.00
2023-01-13T08:39:18.806Z,8.90
2023-01-13T08:42:05.979Z,9.00
2023-01-13T08:44:54.864Z,8.90
2023-01-13T08:47:42.035Z,8.90
2023-01-13T08:50:29.705Z,9.00
2023-01-13T08:53:17.098Z,8.90
2023-01-13T08:56:10.924Z,8.90
2023-01-13T08:59:01.940Z,8.90
2023-01-13T09:01:49.467Z,8.80
2023-01-13T09:04:36.865Z,8.80
2023-01-13T09:07:24.387Z,8.90
2023-01-13T09:10:12.115Z,9.00
2023-01-13T09:13:15.515Z,9.10
2023-01-13T09:16:03.063Z,9.30
2023-01-13T09:18:50.346Z,9.60
2023-01-13T09:21:37.863Z,9.90
2023-01-13T09:24:26.114Z,10.10
2023-01-13T09:27:15.627Z,10.30
2023-01-13T09:30:03.396Z,10.20
2023-01-13T09:32:52.457Z,10.10
2023-01-13T09:35:39.873Z,10.10
2023-01-13T09:38:29.911Z,10.10
2023-01-13T09:41:47.035Z,10.10
2023-01-13T09:44:46.345Z,10.20
2023-01-13T09:47:43.392Z,10.40
2023-01-13T09:50:36.348Z,10.70
2023-01-13T09:53:33.414Z,10.70
2023-01-13T09:56:20.201Z,10.90
2023-01-13T09:59:10.705Z,11.70
2023-01-13T10:02:16.459Z,11.90
2023-01-13T10:05:18.599Z,11.60
2023-01-13T10:08:18.192Z,11.80
2023-01-13T10:11:35.386Z,11.50
2023-01-13T10:14:32.004Z,11.10
2023-01-13T10:17:28.533Z,11.00
2023-01-13T10:20:27.477Z,11.30
2023-01-13T10:23:27.177Z,11.70
2023-01-13T10:26:29.414Z,11.90
2023-01-13T10:29:24.701Z,11.90
2023-01-13T10:32:11.897Z,11.70
2023-01-13T10:35:00.189Z,11.70
2023-01-13T10:37:56.401Z,11.70
2023-01-13T10:40:58.672Z,11.50
2023-01-13T10:44:06.356Z,11.20
2023-01-13T10:46:56.511Z,11.00
2023-01-13T10:49:43.901Z,10.80
2023-01-13T10:52:35.968Z,10.80
2023-01-13T10:55:36.947Z,10.90
2023-01-13T10:58:26.053Z,10.70
2023-01-13T11:01:26.525Z,10.80
2023-01-13T11:04:32.097Z,10.70
2023-01-13T11:07:34.649Z,10.60
2023-01-13T11:10:27.384Z,10.70
2023-01-13T11:13:34.627Z,10.50
2023-01-13T11:16:22.322Z,10.40
2023-01-13T11:19:12.655Z,10.30
2023-01-13T11:22:11.834Z,10.00
2023-01-13T11:25:01.800Z,9.70
2023-01-13T11:28:07.090Z,9.60
2023-01-13T11:31:06.859Z,9.40
2023-01-13T11:34:13.939Z,9.50
2023-01-13T11:37:04.395Z,9.70
2023-01-13T11:40:07.686Z,10.10
2023-01-13T11:43:07.042Z,10.50
2023-01-13T11:46:01.844Z,10.80
2023-01-13T11:48:49.251Z,10.80
2023-01-13T11:51:45.650Z,11.10
2023-01-13T11:54:50.362Z,11.00
2023-01-13T11:57:49.695Z,11.20
2023-01-13T12:00:41.045Z,11.30
2023-01-13T12:03:40.870Z,11.30
2023-01-13T12:06:43.411Z,11.20
2023-01-13T12:09:33.991Z,11.00
2023-01-13T12:12:36.619Z,10.80
2023-01-13T12:15:32.572Z,10.60
2023-01-13T12:18:35.138Z,10.50
2023-01-13T12:21:31.521Z,10.30
2023-01-13T12:24:24.679Z,10.20
2023-01-13T12:27:47.527Z,10.20
2023-01-13T12:30:52.836Z,10.20
2023-01-13T12:33:52.178Z,10.20
2023-01-13T12:36:48.971Z,10.40
2023-01-13T12:39:47.907Z,10.30
2023-01-13T12:42:59.222Z,10.30
2023-01-13T12:45:46.735Z,10.40
2023-01-13T12:48:50.902Z,10.60
2023-01-13T12:51:41.181Z,10.80
2023-01-13T12:54:34.710Z,10.90
2023-01-13T12:57:27.037Z,11.10
2023-01-13T13:00:16.233Z,11.10
2023-01-13T13:03:18.436Z,11.00
2023-01-13T13:06:22.978Z,10.90
2023-01-13T13:09:33.358Z,10.80
2023-01-13T13:13:03.105Z,10.60
2023-01-13T13:15:52.815Z,10.60
2023-01-13T13:18:39.965Z,10.30
2023-01-13T13:21:30.454Z,10.10
2023-01-13T13:24:18.641Z,9.60
2023-01-13T13:27:24.438Z,9.30
2023-01-13T13:30:32.932Z,9.30
2023-01-13T13:33:41.423Z,9.30
2023-01-13T13:36:54.600Z,9.10
2023-01-13T13:40:02.020Z,8.90
2023-01-13T13:43:08.440Z,8.90
2023-01-13T13:46:13.251Z,9.00
2023-01-13T13:49:01.738Z,9.20
2023-01-13T13:52:01.563Z,9.50
2023-01-13T13:54:51.892Z,9.80
2023-01-13T13:57:41.990Z,9.90
2023-01-13T14:00:38.184Z,9.90
2023-01-13T14:03:34.554Z,10.00
2023-01-13T14:06:25.151Z,10.00
2023-01-13T14:09:19.998Z,10.10
2023-01-13T14:12:10.105Z,10.10
2023-01-13T14:14:59.062Z,10.10
2023-01-13T14:17:46.678Z,10.10
2023-01-13T14:20:35.541Z,10.10
2023-01-13T14:23:26.187Z,10.10
2023-01-13T14:26:16.406Z,10.00
2023-01-13T14:29:04.177Z,10.00
2023-01-13T14:31:54.334Z,10.00
2023-01-13T14:34:41.954Z,10.00
2023-01-13T14:37:40.826Z,10.00
2023-01-13T14:40:38.050Z,10.00
2023-01-13T14:43:25.823Z,9.80
2023-01-13T14:46:14.426Z,9.80
2023-01-13T14:49:02.078Z,9.60
2023-01-13T14:51:49.420Z,9.70
2023-01-13T14:54:46.032Z,9.70
2023-01-13T14:57:35.886Z,9.70
2023-01-13T15:00:25.660Z,9.60
2023-01-13T15:03:15.398Z,9.60
2023-01-13T15:06:02.932Z,9.60
2023-01-13T15:08:50.649Z,9.60
2023-01-13T15:11:37.769Z,9.50
2023-01-13T15:14:27.930Z,9.50
2023-01-13T15:17:17.127Z,9.50
2023-01-13T15:20:06.189Z,9.50
2023-01-13T15:22:55.057Z,9.50
2023-01-13T15:25:43.506Z,9.50
2023-01-13T15:28:34.036Z,9.40
2023-01-13T15:31:22.230Z,9.40
2023-01-13T15:34:09.670Z,9.40
2023-01-13T15:36:57.130Z,9.40
2023-01-13T15:39:44.607Z,9.40
2023-01-13T15:42:49.970Z,9.30
2023-01-13T15:45:56.707Z,9.30
2023-01-13T15:48:44.352Z,9.40
2023-01-13T15:51:32.457Z,9.40
2023-01-13T15:54:21.448Z,9.40
2023-01-13T15:57:17.928Z,9.40
2023-01-13T16:00:08.532Z,9.30
2023-01-13T16:02:55.995Z,9.40
2023-01-13T16:05:44.662Z,9.20
2023-01-13T16:08:33.514Z,9.20
2023-01-13T16:11:20.977Z,9.20
2023-01-13T16:14:08.434Z,9.30
2023-01-13T16:16:55.716Z,9.20
2023-01-13T16:19:43.580Z,9.30
2023-01-13T16:22:30.789Z,9.30
2023-01-13T16:25:23.527Z,9.20
2023-01-13T16:28:19.960Z,9.20
2023-01-13T16:31:22.072Z,9.20
2023-01-13T16:34:09.564Z,9.10
2023-01-13T16:36:57.223Z,9.10
2023-01-13T16:39:44.691Z,9.10
2023-01-13T16:42:32.218Z,9.20
2023-01-13T16:45:20.117Z,9.20
2023-01-13T16:48:07.680Z,9.30
2023-01-13T16:50:55.642Z,9.30
2023-01-13T16:53:43.061Z,9.20
2023-01-13T16:56:33.241Z,9.30
2023-01-13T16:59:21.525Z,9.30
2023-01-13T17:02:14.660Z,9.40
2023-01-13T17:05:02.028Z,9.40
2023-01-13T17:07:49.919Z,9.40
2023-01-13T17:10:37.347Z,9.50
2023-01-13T17:13:24.912Z,9.50
2023-01-13T17:16:20.788Z,9.30
2023-01-13T17:19:08.480Z,9.40
2023-01-13T17:21:55.676Z,9.40
2023-01-13T17:24:43.245Z,9.40
2023-01-13T17:27:30.715Z,9.60
2023-01-13T17:30:19.312Z,9.50
2023-01-13T17:33:06.482Z,9.50
2023-01-13T17:35:53.916Z,9.50
2023-01-13T17:38:41.409Z,9.30
2023-01-13T17:41:28.914Z,9.40
2023-01-13T17:44:21.464Z,9.40
2023-01-13T17:47:08.940Z,9.40
2023-01-13T17:49:56.339Z,9.40
2023-01-13T17:52:43.833Z,9.40
2023-01-13T17:55:31.572Z,9.40
2023-01-13T17:58:18.855Z,9.40
2023-01-13T18:01:11.038Z,9.30
2023-01-13T18:03:58.763Z,9.20
2023-01-13T18:06:46.395Z,9.30
2023-01-13T18:09:34.032Z,9.20
2023-01-13T18:12:21.184Z,9.30
2023-01-13T18:15:08.744Z,9.30
2023-01-13T18:17:56.381Z,9.20
2023-01-13T18:21:03.310Z,9.10
2023-01-13T18:24:08.924Z,9.10
2023-01-13T18:27:14.453Z,9.00
2023-01-13T18:30:03.493Z,9.00
2023-01-13T18:32:50.943Z,9.10
2023-01-13T18:35:40.092Z,9.00
2023-01-13T18:38:27.599Z,9.00
2023-01-13T18:41:32.940Z,9.00
2023-01-13T18:44:20.497Z,8.90
2023-01-13T18:47:07.801Z,8.90
2023-01-13T18:49:55.649Z,9.00
2023-01-13T18:52:42.877Z,8.90
2023-01-13T18:55:30.633Z,9.00
2023-01-13T18:58:19.593Z,8.90
2023-01-13T19:01:07.346Z,8.90
2023-01-13T19:03:59.773Z,9.00
2023-01-13T19:06:49.783Z,8.80
2023-01-13T19:09:37.262Z,8.80
2023-01-13T19:12:26.390Z,8.80
2023-01-13T19:15:13.646Z,8.80
2023-01-13T19:18:01.145Z,8.80
2023-01-13T19:20:48.550Z,8.90
2023-01-13T19:23:36.364Z,9.00
2023-01-13T19:26:23.907Z,9.00
2023-01-13T19:29:11.997Z,9.00
2023-01-13T19:31:59.095Z,9.00
2023-01-13T19:34:47.716Z,9.10
2023-01-13T19:37:36.678Z,9.00
2023-01-13T19:40:24.166Z,9.00
2023-01-13T19:43:29.803Z,9.10
2023-01-13T19:46:17.147Z,9.00
2023-01-13T19:49:04.978Z,9.00
2023-01-13T19:51:52.479Z,9.00
2023-01-13T19:54:40.309Z,9.10
2023-01-13T19:57:27.495Z,9.10
2023-01-13T20:00:17.354Z,9.00
2023-01-13T20:03:06.354Z,9.00
2023-01-13T20:05:54.718Z,9.00
2023-01-13T20:08:43.838Z,9.00
2023-01-13T20:11:33.989Z,8.90
2023-01-13T20:14:21.585Z,8.90
2023-01-13T20:17:09.380Z,8.90
2023-01-13T20:19:56.512Z,9.00
2023-01-13T20:22:43.722Z,9.00
2023-01-13T20:25:31.162Z,9.00
2023-01-13T20:28:19.796Z,9.00
2023-01-13T20:31:12.104Z,8.90
2023-01-13T20:33:59.192Z,8.90
2023-01-13T20:36:47.256Z,9.00
2023-01-13T20:39:36.112Z,9.10
2023-01-13T20:42:29.315Z,9.10
2023-01-13T20:45:19.877Z,9.20
2023-01-13T20:48:07.316Z,9.10
2023-01-13T20:50:56.536Z,9.00
2023-01-13T20:53:43.739Z,9.00
2023-01-13T20:56:31.156Z,9.00
2023-01-13T20:59:18.232Z,9.10
2023-01-13T21:02:08.521Z,9.10
2023-01-13T21:04:56.111Z,9.00
2023-01-13T21:07:43.647Z,8.90
2023-01-13T21:10:30.826Z,8.90
2023-01-13T21:13:36.269Z,8.90
2023-01-13T21:16:23.919Z,8.90
2023-01-13T21:19:11.544Z,8.80
2023-01-13T21:21:59.053Z,8.80
2023-01-13T21:24:46.193Z,8.70
2023-01-13T21:27:34.693Z,8.60
2023-01-13T21:30:22.828Z,8.60
2023-01-13T21:33:13.054Z,8.60
2023-01-13T21:36:08.383Z,8.70
2023-01-13T21:38:57.559Z,8.70
2023-01-13T21:42:03.189Z,8.70
2023-01-13T21:45:08.699Z,8.70
2023-01-13T21:47:56.040Z,8.70
2023-01-13T21:50:43.526Z,8.60
2023-01-13T21:53:31.080Z,8.60
2023-01-13T21:56:18.281Z,8.70
2023-01-13T21:59:05.417Z,8.60
2023-01-13T22:02:15.633Z,8.50
2023-01-13T22:04:42.685Z,8.50
2023-01-13T22:07:32.309Z,8.60
2023-01-13T22:10:22.337Z,8.60
2023-01-13T22:13:29.674Z,8.60
2023-01-13T22:16:17.315Z,8.50
2023-01-13T22:19:05.093Z,8.50
2023-01-13T22:21:52.220Z,8.50
2023-01-13T22:24:41.312Z,8.50
2023-01-13T22:27:30.007Z,8.50
2023-01-13T22:30:21.801Z,8.50
2023-01-13T22:33:08.878Z,8.50
2023-01-13T22:35:56.986Z,8.40
2023-01-13T22:38:44.728Z,8.30
2023-01-13T22:41:32.073Z,8.20
2023-01-13T22:44:19.852Z,8.20
2023-01-13T22:47:08.495Z,8.20
2023-01-13T22:49:55.960Z,8.00
2023-01-13T22:52:43.409Z,7.90
2023-01-13T22:55:31.040Z,7.90
2023-01-13T22:58:18.192Z,7.90
2023-01-13T23:01:11.285Z,7.90
2023-01-13T23:03:59.093Z,7.90
2023-01-13T23:06:46.449Z,8.10
2023-01-13T23:09:33.622Z,8.30
2023-01-13T23:12:20.833Z,8.30
2023-01-13T23:15:08.667Z,8.40
2023-01-13T23:17:56.123Z,8.50
2023-01-13T23:20:43.584Z,8.50
2023-01-13T23:23:31.153Z,8.50
2023-01-13T23:26:19.577Z,8.40
2023-01-13T23:29:09.848Z,8.30
2023-01-13T23:31:57.150Z,8.30
2023-01-13T23:34:44.395Z,8.30
2023-01-13T23:37:31.623Z,8.30
2023-01-13T23:40:19.218Z,8.20
2023-01-13T23:43:06.606Z,8.10
2023-01-13T23:45:56.030Z,8.00
2023-01-13T23:48:43.162Z,8.00
2023-01-13T23:51:30.974Z,7.90
2023-01-13T23:54:19.151Z,8.00
2023-01-13T23:57:06.373Z,8.10
2023-01-13T23:59:53.632Z,8.10
